sensor_id;sensor_type;location;lat;lon;timestamp;temperature;humidity
1992;DHT22;997;48.448;8.924;2023-04-15T08:12:36;8.30;99.90
1992;DHT22;997;48.448;8.924;2023-04-15T08:15:03;8.50;99.90
1992;DHT22;997;48.448;8.924;2023-04-15T08:17:29;8.70;99.90
1992;DHT22;997;48.448;8.924;2023-04-15T08:19:54;8.90;99.90
1992;DHT22;997;48.448;8.924;2023-04-15T08:22:20;9.00;99.90
1992;DHT22;997;48.448;8.924;2023-04-15T08:24:46;9.00;99.90
1992;DHT22;997;48.448;8.924;2023-04-15T08:27:12;9.10;99.90
1992;DHT22;997;48.448;8.924;2023-04-15T08:29:37;9.30;99.90
1992;DHT22;997;48.448;8.924;2023-04-15T08:32:04;9.50;99.90
1992;DHT22;997;48.448;8.924;2023-04-15T08:34:29;9.70;99.90
1992;DHT22;997;48.448;8.924;2023-04-15T08:36:55;10.00;99.90
1992;DHT22;997;48.448;8.924;2023-04-15T08:39:21;10.10;99.90
1992;DHT22;997;48.448;8.924;2023-04-15T08:41:51;10.20;99.90
1992;DHT22;997;48.448;8.924;2023-04-15T08:44:21;10.20;99.90
1992;DHT22;997;48.448;8.924;2023-04-15T08:46:48;10.30;99.90
1992;DHT22;997;48.448;8.924;2023-04-15T08:49:16;10.50;99.90
1992;DHT22;997;48.448;8.924;2023-04-15T08:51:44;10.60;99.90
1992;DHT22;997;48.448;8.924;2023-04-15T08:54:10;10.70;99.90
1992;DHT22;997;48.448;8.924;2023-04-15T08:56:38;10.80;99.90
1992;DHT22;997;48.448;8.924;2023-04-15T08:59:04;11.00;99.90
1992;DHT22;997;48.448;8.924;2023-04-15T09:01:31;11.10;99.90
1992;DHT22;997;48.448;8.924;2023-04-15T09:03:58;11.30;99.90
1992;DHT22;997;48.448;8.924;2023-04-15T09:06:24;11.50;99.90
1992;DHT22;997;48.448;8.924;2023-04-15T09:08:50;11.70;99.90
1992;DHT22;997;48.448;8.924;2023-04-15T09:11:17;11.80;99.90
1992;DHT22;997;48.448;8.924;2023-04-15T09:13:44;12.00;99.90
1992;DHT22;997;48.448;8.924;2023-04-15T09:16:09;12.10;99.90
1992;DHT22;997;48.448;8.924;2023-04-15T09:18:37;12.10;99.90
1992;DHT22;997;48.448;8.924;2023-04-15T09:23:31;12.10;99.90
1992;DHT22;997;48.448;8.924;2023-04-15T09:25:57;12.20;99.90
1992;DHT22;997;48.448;8.924;2023-04-15T09:28:23;12.20;99.90
1992;DHT22;997;48.448;8.924;2023-04-15T09:30:55;12.30;99.90
1992;DHT22;997;48.448;8.924;2023-04-15T09:33:21;12.30;99.90
1992;DHT22;997;48.448;8.924;2023-04-15T09:36:00;12.10;99.90
1992;DHT22;997;48.448;8.924;2023-04-15T09:38:26;12.20;99.90
1992;DHT22;997;48.448;8.924;2023-04-15T09:40:52;12.40;99.90
1992;DHT22;997;48.448;8.924;2023-04-15T10:31:28;12.20;99.90
1992;DHT22;997;48.448;8.924;2023-04-15T10:33:54;14.20;99.90
1992;DHT22;997;48.448;8.924;2023-04-15T10:36:20;14.20;99.90
1992;DHT22;997;48.448;8.924;2023-04-15T10:38:46;14.10;99.90
1992;DHT22;997;48.448;8.924;2023-04-15T10:41:26;14.30;99.90
1992;DHT22;997;48.448;8.924;2023-04-15T10:44:02;14.10;99.90
1992;DHT22;997;48.448;8.924;2023-04-15T10:46:38;14.20;99.90
1992;DHT22;997;48.448;8.924;2023-04-15T10:49:11;14.20;99.90
1992;DHT22;997;48.448;8.924;2023-04-15T10:51:42;14.30;99.90
1992;DHT22;997;48.448;8.924;2023-04-15T10:54:13;14.00;99.10
1992;DHT22;997;48.448;8.924;2023-04-15T10:56:41;13.80;99.90
1992;DHT22;997;48.448;8.924;2023-04-15T10:59:08;13.90;99.90
1992;DHT22;997;48.448;8.924;2023-04-15T11:01:54;14.20;99.90
1992;DHT22;997;48.448;8.924;2023-04-15T11:04:55;14.40;99.90
1992;DHT22;997;48.448;8.924;2023-04-15T11:12:38;15.20;99.90
1992;DHT22;997;48.448;8.924;2023-04-15T11:15:32;15.20;98.30
1992;DHT22;997;48.448;8.924;2023-04-15T11:18:11;15.40;99.90
1992;DHT22;997;48.448;8.924;2023-04-15T11:20:39;15.50;99.90
1992;DHT22;997;48.448;8.924;2023-04-15T11:23:05;15.40;98.00
1992;DHT22;997;48.448;8.924;2023-04-15T11:25:32;15.40;95.90
1992;DHT22;997;48.448;8.924;2023-04-15T11:27:59;15.20;96.00
1992;DHT22;997;48.448;8.924;2023-04-15T11:30:29;15.10;97.10
1992;DHT22;997;48.448;8.924;2023-04-15T11:32:58;15.20;97.30
1992;DHT22;997;48.448;8.924;2023-04-15T11:35:25;15.00;97.70
1992;DHT22;997;48.448;8.924;2023-04-15T11:37:51;15.10;97.80
1992;DHT22;997;48.448;8.924;2023-04-15T11:40:22;15.10;97.00
1992;DHT22;997;48.448;8.924;2023-04-15T11:45:28;15.60;96.20
1992;DHT22;997;48.448;8.924;2023-04-15T11:47:54;15.50;93.00
1992;DHT22;997;48.448;8.924;2023-04-15T11:50:21;15.60;93.20
1992;DHT22;997;48.448;8.924;2023-04-15T11:52:58;15.60;93.10
1992;DHT22;997;48.448;8.924;2023-04-15T11:55:25;15.60;93.30
1992;DHT22;997;48.448;8.924;2023-04-15T11:58:18;15.40;92.10
1992;DHT22;997;48.448;8.924;2023-04-15T12:00:51;15.50;91.00
1992;DHT22;997;48.448;8.924;2023-04-15T12:03:22;15.70;91.50
1992;DHT22;997;48.448;8.924;2023-04-15T12:06:52;15.70;85.60
1992;DHT22;997;48.448;8.924;2023-04-15T12:09:11;15.50;87.40
1992;DHT22;997;48.448;8.924;2023-04-15T12:14:05;15.20;85.40
1992;DHT22;997;48.448;8.924;2023-04-15T12:16:33;15.10;90.40
1992;DHT22;997;48.448;8.924;2023-04-15T12:19:03;15.20;92.40
1992;DHT22;997;48.448;8.924;2023-04-15T12:21:34;14.80;91.90
1992;DHT22;997;48.448;8.924;2023-04-15T12:24:05;14.70;91.90
1992;DHT22;997;48.448;8.924;2023-04-15T12:26:52;14.50;92.50
1992;DHT22;997;48.448;8.924;2023-04-15T12:29:19;14.30;91.50
1992;DHT22;997;48.448;8.924;2023-04-15T12:31:50;14.20;91.90
1992;DHT22;997;48.448;8.924;2023-04-15T12:34:17;14.30;93.20
1992;DHT22;997;48.448;8.924;2023-04-15T12:36:43;14.30;94.10
1992;DHT22;997;48.448;8.924;2023-04-15T12:39:08;14.30;93.60
1992;DHT22;997;48.448;8.924;2023-04-15T12:41:34;14.50;92.70
1992;DHT22;997;48.448;8.924;2023-04-15T12:44:00;14.80;94.20
1992;DHT22;997;48.448;8.924;2023-04-15T12:46:26;15.20;95.10
1992;DHT22;997;48.448;8.924;2023-04-15T12:48:52;15.60;93.90
1992;DHT22;997;48.448;8.924;2023-04-15T12:51:19;15.90;91.30
1992;DHT22;997;48.448;8.924;2023-04-15T12:53:46;16.00;89.40
1992;DHT22;997;48.448;8.924;2023-04-15T12:56:12;16.10;90.40
1992;DHT22;997;48.448;8.924;2023-04-15T12:58:38;16.30;90.70
1992;DHT22;997;48.448;8.924;2023-04-15T13:01:04;16.60;91.90
1992;DHT22;997;48.448;8.924;2023-04-15T13:03:30;16.90;91.40
1992;DHT22;997;48.448;8.924;2023-04-15T13:05:56;16.90;90.50
1992;DHT22;997;48.448;8.924;2023-04-15T13:08:22;16.70;90.70
1992;DHT22;997;48.448;8.924;2023-04-15T13:10:48;16.30;88.20
1992;DHT22;997;48.448;8.924;2023-04-15T13:13:14;15.90;91.90
1992;DHT22;997;48.448;8.924;2023-04-15T13:15:40;15.80;91.50
1992;DHT22;997;48.448;8.924;2023-04-15T13:18:06;15.90;93.60
1992;DHT22;997;48.448;8.924;2023-04-15T13:20:32;16.20;92.70
1992;DHT22;997;48.448;8.924;2023-04-15T13:22:57;16.30;92.40
1992;DHT22;997;48.448;8.924;2023-04-15T13:25:23;16.60;90.30
1992;DHT22;997;48.448;8.924;2023-04-15T13:27:50;16.60;86.10
1992;DHT22;997;48.448;8.924;2023-04-15T13:30:16;16.50;83.90
1992;DHT22;997;48.448;8.924;2023-04-15T13:32:41;16.40;81.50
1992;DHT22;997;48.448;8.924;2023-04-15T13:35:07;16.40;85.10
1992;DHT22;997;48.448;8.924;2023-04-15T13:37:33;16.30;89.10
1992;DHT22;997;48.448;8.924;2023-04-15T13:39:59;16.20;89.30
1992;DHT22;997;48.448;8.924;2023-04-15T13:42:25;16.20;90.80
1992;DHT22;997;48.448;8.924;2023-04-15T13:44:51;16.20;87.60
1992;DHT22;997;48.448;8.924;2023-04-15T13:47:20;16.10;86.90
1992;DHT22;997;48.448;8.924;2023-04-15T13:49:46;16.10;85.90
1992;DHT22;997;48.448;8.924;2023-04-15T13:52:12;16.10;89.00
1992;DHT22;997;48.448;8.924;2023-04-15T13:54:38;16.00;87.90
1992;DHT22;997;48.448;8.924;2023-04-15T13:57:04;16.00;88.90
1992;DHT22;997;48.448;8.924;2023-04-15T13:59:32;16.10;90.40
1992;DHT22;997;48.448;8.924;2023-04-15T14:01:57;16.20;85.80
1992;DHT22;997;48.448;8.924;2023-04-15T14:04:23;16.10;87.00
1992;DHT22;997;48.448;8.924;2023-04-15T14:06:49;15.90;85.30
1992;DHT22;997;48.448;8.924;2023-04-15T14:09:15;15.70;83.90
1992;DHT22;997;48.448;8.924;2023-04-15T20:59:24;8.80;99.90
